L'Europe — FKJB — position and weather

sailwx.info

Track history (hours):
 
Tides and Currents Weather Stations Pressure Air Temp Water Temp Dewpoint Dewpoint Depression Visibility Wind Speed Wind Dir Waves Ship Positions

Oceanographic research ship L'Europe (France)

Detailed information on ship capabilities available from University of Delaware's Ocean Information Center.

Last reported at 2018-Jun-17 04:44 UTC. Time now 2018-Jun-20 15:25 UTC.
Position N 43°24' E 003°44'.

Length 30 m; beam 11 m.

Type: . MMSI: 227403000.

Date/timePositionNaut miles runAvg speedWind from/ knotsBaromVisibWave heightAir tempDewpointWater temp
2018-Jun-17 04:44N 43°24' E 003°44'  
2018-Jun-14 15:07N 43°24' E 003°50'0 3.6
2018-Jun-14 15:00N 43°25' E 003°50'3 4.1
2018-Jun-14 14:22N 43°25' E 003°54'2 6.4
2018-Jun-14 14:00N 43°26' E 003°57'1 2.5
2018-Jun-14 13:30N 43°27' E 003°57'2 3.6
2018-Jun-14 13:00N 43°29' E 003°55'4 8.4
2018-Jun-14 12:30N 43°27' E 004°01'2 3.5
2018-Jun-14 12:00N 43°26' E 004°03'2 3.1
2018-Jun-14 11:29N 43°25' E 004°04'1 3.0
2018-Jun-14 11:00N 43°25' E 004°06'  
2018-Jun-11 05:31N 43°24' E 003°44'0 8.6
2018-Jun-11 05:30N 43°24' E 003°44'  
Track history (hours):
 
Tides and Currents Weather Stations Pressure Air Temp Water Temp Dewpoint Dewpoint Depression Visibility Wind Speed Wind Dir Waves Ship Positions

Oceanographic research ship L'Europe (France)

Detailed information on ship capabilities available from University of Delaware's Ocean Information Center.

Last reported at 2018-Jun-17 04:44 UTC. Time now 2018-Jun-20 15:25 UTC.
Position N 43°24' E 003°44'.

Length 30 m; beam 11 m.

Type: . MMSI: 227403000.

Date/timePositionNaut miles runAvg speedWind from/ knotsBaromVisibWave heightAir tempDewpointWater temp
2018-Jun-17 04:44N 43°24' E 003°44'  
2018-Jun-14 15:07N 43°24' E 003°50'0 3.6
2018-Jun-14 15:00N 43°25' E 003°50'3 4.1
2018-Jun-14 14:22N 43°25' E 003°54'2 6.4
2018-Jun-14 14:00N 43°26' E 003°57'1 2.5
2018-Jun-14 13:30N 43°27' E 003°57'2 3.6
2018-Jun-14 13:00N 43°29' E 003°55'4 8.4
2018-Jun-14 12:30N 43°27' E 004°01'2 3.5
2018-Jun-14 12:00N 43°26' E 004°03'2 3.1
2018-Jun-14 11:29N 43°25' E 004°04'1 3.0
2018-Jun-14 11:00N 43°25' E 004°06'  
2018-Jun-11 05:31N 43°24' E 003°44'0 8.6
2018-Jun-11 05:30N 43°24' E 003°44'  

Dump ship's entire track history